TimeAKDT,TemperatureF,Dew PointF,Humidity,Sea Level PressureIn,VisibilityMPH,Wind Direction,Wind SpeedMPH,Gust SpeedMPH,PrecipitationIn,Events,Conditions,WindDirDegrees,DateUTC
12:53 AM,61.0,61.0,100,29.96,10.0,NNW,10.4,-,N/A,,Clear,330,2013-09-12 08:53:00
1:53 AM,60.1,60.1,100,29.97,10.0,NNW,17.3,-,N/A,,Clear,340,2013-09-12 09:53:00
2:53 AM,60.1,60.1,100,29.98,10.0,NNW,16.1,-,N/A,,Clear,330,2013-09-12 10:53:00
3:17 AM,60.8,60.8,100,29.98,10.0,NNW,11.5,-,N/A,,Mostly Cloudy,330,2013-09-12 11:17:00
3:34 AM,60.8,60.8,100,29.97,10.0,NW,9.2,-,N/A,,Overcast,320,2013-09-12 11:34:00
3:53 AM,60.1,60.1,100,29.98,10.0,NNW,11.5,-,N/A,,Overcast,340,2013-09-12 11:53:00
4:53 AM,60.1,60.1,100,29.98,10.0,NW,11.5,-,N/A,,Overcast,320,2013-09-12 12:53:00
5:53 AM,59.0,59.0,100,30.01,10.0,NNW,15.0,19.6,N/A,,Overcast,330,2013-09-12 13:53:00
6:02 AM,59.0,59.0,100,30.00,10.0,NNW,10.4,-,N/A,,Overcast,330,2013-09-12 14:02:00
6:53 AM,59.0,59.0,100,30.01,10.0,NW,6.9,-,N/A,,Overcast,310,2013-09-12 14:53:00
7:53 AM,60.1,59.0,96,30.01,10.0,NW,6.9,-,N/A,,Overcast,310,2013-09-12 15:53:00
8:53 AM,60.1,59.0,96,30.03,10.0,NW,5.8,-,N/A,,Overcast,310,2013-09-12 16:53:00
9:53 AM,61.0,59.0,93,30.02,10.0,NNW,9.2,-,N/A,,Overcast,340,2013-09-12 17:53:00
10:53 AM,62.1,59.0,90,30.02,10.0,NW,11.5,-,N/A,,Overcast,320,2013-09-12 18:53:00
11:53 AM,61.0,59.0,93,30.03,10.0,NNW,12.7,-,N/A,,Mostly Cloudy,340,2013-09-12 19:53:00
12:53 PM,63.0,59.0,87,30.04,10.0,NNW,11.5,-,N/A,,Mostly Cloudy,340,2013-09-12 20:53:00
1:53 PM,64.0,57.9,80,30.05,10.0,NNW,16.1,-,N/A,,Mostly Cloudy,340,2013-09-12 21:53:00
2:53 PM,64.9,57.0,75,30.03,10.0,NNW,13.8,-,N/A,,Partly Cloudy,330,2013-09-12 22:53:00
3:53 PM,66.9,57.9,73,30.02,10.0,NNW,11.5,-,N/A,,Partly Cloudy,330,2013-09-12 23:53:00
4:53 PM,64.9,57.9,78,30.02,10.0,NNW,15.0,-,N/A,,Clear,340,2013-09-13 00:53:00
5:53 PM,64.0,57.9,80,30.01,10.0,NNW,10.4,-,N/A,,Clear,340,2013-09-13 01:53:00
6:53 PM,62.1,59.0,90,30.02,10.0,NNW,11.5,-,N/A,,Partly Cloudy,340,2013-09-13 02:53:00
7:53 PM,60.1,57.9,93,30.03,10.0,NW,5.8,-,N/A,,Clear,320,2013-09-13 03:53:00
8:53 PM,59.0,57.9,96,30.04,10.0,WNW,5.8,-,N/A,,Partly Cloudy,300,2013-09-13 04:53:00
9:53 PM,57.9,57.9,100,30.04,10.0,NW,4.6,-,N/A,,Clear,320,2013-09-13 05:53:00
10:53 PM,59.0,57.9,96,30.04,10.0,NNW,10.4,-,N/A,,Clear,340,2013-09-13 06:53:00
11:53 PM,57.0,57.0,100,30.04,10.0,NW,9.2,-,N/A,,Clear,320,2013-09-13 07:53:00